createdAt,value
2023-03-17T00:02:25.773Z,23.8705
2023-03-17T00:17:27.655Z,24.1757
2023-03-17T00:32:29.621Z,23.9355
2023-03-17T00:47:31.587Z,24.1627
2023-03-17T01:02:33.498Z,24.1237
2023-03-17T01:17:35.426Z,23.7207
2023-03-17T01:32:37.297Z,23.6755
2023-03-17T01:47:39.229Z,24.4326
2023-03-17T02:02:41.219Z,24.1825
2023-03-17T02:17:43.148Z,24.4747
2023-03-17T02:32:45.212Z,23.6557
2023-03-17T02:47:47.224Z,23.2007
2023-03-17T03:02:49.177Z,24.1206
2023-03-17T03:17:51.116Z,24.0036
2023-03-17T03:32:53.106Z,23.6687
2023-03-17T03:47:55.063Z,22.8076
2023-03-17T04:02:57.145Z,23.8445
2023-03-17T04:17:59.141Z,23.4607
2023-03-17T04:33:01.187Z,23.8018
2023-03-17T04:48:03.245Z,22.9927
2023-03-17T05:03:11.197Z,24.3088
2023-03-17T05:18:18.659Z,23.0707
2023-03-17T05:33:20.592Z,23.5034
2023-03-17T05:48:22.670Z,25.3333
2023-03-17T06:03:24.715Z,25.1253
2023-03-17T06:18:26.933Z,25.8372
2023-03-17T06:33:28.893Z,24.7904
2023-03-17T06:48:30.821Z,25.3692
2023-03-17T07:03:32.637Z,25.1123
2023-03-17T07:18:34.626Z,25.2621
2023-03-17T07:33:37.912Z,25.6032
2023-03-17T07:48:39.894Z,24.9173
2023-03-17T08:03:42.042Z,25.6032
2023-03-17T08:18:44.101Z,25.6942
2023-03-17T08:33:46.117Z,25.2132
2023-03-17T08:48:48.059Z,25.6812
2023-03-17T09:03:50.023Z,25.5704
2023-03-17T09:18:52.050Z,25.9443
2023-03-17T09:33:54.166Z,25.571
2023-03-17T09:48:56.061Z,24.8752
2023-03-17T10:03:57.966Z,26.2984
2023-03-17T10:18:59.907Z,25.4961
2023-03-17T10:34:01.912Z,25.4342
2023-03-17T10:49:03.791Z,26.1034
2023-03-17T11:04:05.729Z,25.4794
2023-03-17T11:19:07.670Z,25.9121
2023-03-17T11:34:09.566Z,25.4732
2023-03-17T11:49:11.519Z,25.428
2023-03-17T12:04:13.413Z,25.9672
2023-03-17T12:19:15.400Z,25.4955
2023-03-17T12:34:17.306Z,25.8601
2023-03-17T12:49:19.252Z,25.4441
2023-03-17T13:04:21.282Z,25.5642
2023-03-17T13:19:23.246Z,25.6521
2023-03-17T13:34:25.164Z,25.3234
2023-03-17T13:49:27.170Z,25.9771
2023-03-17T14:04:29.147Z,25.3432
2023-03-17T14:19:31.128Z,26.1622
2023-03-17T14:34:33.047Z,25.7301
2023-03-17T14:49:35.004Z,25.7722
2023-03-17T15:04:36.932Z,25.597
2023-03-17T15:19:38.858Z,25.207
2023-03-17T15:34:40.758Z,25.844
2023-03-17T15:49:42.632Z,25.9121
2023-03-17T16:04:44.528Z,26.416
2023-03-17T16:19:46.428Z,25.8471
2023-03-17T16:34:48.336Z,26.1758
2023-03-17T16:49:50.250Z,26.4711
2023-03-17T17:04:52.209Z,25.61
2023-03-17T17:19:54.088Z,26.5813
2023-03-17T17:34:55.970Z,25.8892
2023-03-17T17:49:57.880Z,26.7862
2023-03-17T18:04:59.792Z,26.2891
2023-03-17T18:20:01.703Z,26.4191
2023-03-17T19:35:58.578Z,26.4129
2023-03-17T19:51:00.610Z,26.6729
2023-03-17T20:06:02.555Z,26.9391
2023-03-17T20:21:04.495Z,26.663
2023-03-17T20:36:06.470Z,26.8122
2023-03-17T20:51:08.703Z,26.1789
2023-03-17T21:06:10.672Z,26.6401
2023-03-17T21:21:12.614Z,26.9521
2023-03-17T21:36:14.512Z,26.897
2023-03-17T21:51:16.497Z,26.6048
2023-03-17T22:06:18.433Z,27.027
2023-03-17T22:21:20.344Z,27.183
2023-03-17T22:36:22.275Z,27.443
2023-03-17T22:51:24.158Z,27.0307
2023-03-17T23:06:26.130Z,27.8361
2023-03-17T23:21:28.042Z,27.651
2023-03-17T23:36:29.976Z,27.7228
2023-03-17T23:51:32.030Z,27.5959
